Rathbun, Iowa
Current Conditions -  °F | °C
As of 4:15 PM on Friday 24 Oct 2014 (Local Time) from KTVK Reporting Station
Few Clouds Few Clouds  
Wind Chill: 66°   Ceiling: Unl
Heat Index: 66°   Visibility: 10mi
Dew Point: 63°   Wind: 13mph
Humidity: 88%   Direction: 180°S
Pressure: 29.92"   Gusts: 16mph
Location:  40.71°N, 92.9234°W
Report Text: KTVK 242115Z AUTO 18011G14KT 10SM FEW012 19/17 A2992 RMK AO2
Loading
Personal Weather Stations






























Interactive Weather Map
Tropical Storm Tracking
New forecast layout! Learn more

10-Day Weather Forecast

Advertisements
Track Severe Weather on mobile